Time;durP1;ratioP1;P1;durP2;ratioP2;P2;SDS_P1;SDS_P2;PMS_P1;PMS_P2;Temp;Humidity;BMP_temperature;BMP_pressure;BME280_temperature;BME280_humidity;BME280_pressure;Samples;Min_cycle;Max_cycle;Signal;HPM_P1;HPM_P2
2022/04/10 00:01:16;;;;;;;;;38.00;34.67;;;;;23.40;24.11;101474.81;5036018;28;48055;-87
2022/04/10 00:03:41;;;;;;;;;33.00;33.00;;;;;23.35;24.00;101468.63;5035504;28;45431;-87
2022/04/10 00:06:07;;;;;;;;;41.33;35.33;;;;;23.40;23.75;101470.31;5038283;28;45367;-88
2022/04/10 00:08:32;;;;;;;;;36.00;32.33;;;;;23.96;23.20;101564.72;5039828;28;45247;-87
2022/04/10 00:10:58;;;;;;;;;39.67;36.00;;;;;23.72;23.69;101509.25;5038487;28;46907;-87
2022/04/10 00:13:23;;;;;;;;;40.67;36.33;;;;;23.55;23.40;101490.69;5036076;28;45319;-87
2022/04/10 00:15:48;;;;;;;;;38.67;31.33;;;;;23.67;23.40;101507.59;5035879;28;45326;-87
2022/04/10 00:18:14;;;;;;;;;37.00;32.67;;;;;23.77;23.43;101526.31;5035676;28;45380;-87
2022/04/10 00:20:39;;;;;;;;;37.67;36.00;;;;;23.80;23.37;101519.94;5035106;28;47374;-87
2022/04/10 00:23:05;;;;;;;;;37.00;32.00;;;;;23.38;23.69;101447.75;5035322;28;45289;-88
2022/04/10 00:25:30;;;;;;;;;36.67;34.67;;;;;24.12;23.64;101573.38;5035619;28;45267;-87
2022/04/10 00:27:55;;;;;;;;;41.00;36.67;;;;;23.58;23.43;101506.00;5035543;28;45291;-87
2022/04/10 00:30:22;;;;;;;;;34.33;34.00;;;;;23.45;23.59;101506.25;5035462;28;45373;-87
2022/04/10 00:32:47;;;;;;;;;34.67;33.00;;;;;23.93;23.17;101570.22;5034768;28;45418;-87
2022/04/10 00:35:13;;;;;;;;;38.00;34.33;;;;;23.63;23.25;101525.75;5035552;28;45432;-87
2022/04/10 00:37:39;;;;;;;;;38.00;34.33;;;;;22.93;24.12;101483.91;5035335;28;45316;-87
2022/04/10 00:40:07;;;;;;;;;45.00;36.33;;;;;23.63;23.81;101583.50;5034534;28;47303;-88
2022/04/10 00:42:39;;;;;;;;;42.33;36.67;;;;;23.43;24.07;101556.88;5034562;28;45484;-87
2022/04/10 00:45:06;;;;;;;;;35.00;35.00;;;;;23.62;23.61;101570.00;5036789;28;45408;-87
2022/04/10 00:47:32;;;;;;;;;38.67;33.00;;;;;23.52;23.95;101553.06;5035126;28;45540;-87
2022/04/10 00:49:58;;;;;;;;;36.00;34.33;;;;;23.27;23.99;101504.84;5034522;28;47823;-86
2022/04/10 00:52:26;;;;;;;;;40.33;32.67;;;;;23.74;24.02;101580.56;5035090;28;45250;-88
2022/04/10 00:54:51;;;;;;;;;35.67;33.33;;;;;23.72;23.76;101587.81;5035429;28;45379;-87
2022/04/10 00:57:18;;;;;;;;;39.67;34.00;;;;;23.46;23.72;101545.09;5035299;28;45568;-87
2022/04/10 00:59:43;;;;;;;;;36.00;31.67;;;;;23.27;24.14;101518.41;5034554;28;47692;-87
2022/04/10 01:02:09;;;;;;;;;35.00;32.67;;;;;23.19;23.89;101512.28;5034552;28;45360;-87
2022/04/10 01:04:36;;;;;;;;;36.33;34.67;;;;;23.05;24.15;101503.50;5034862;28;45971;-87
2022/04/10 01:07:02;;;;;;;;;36.00;35.00;;;;;23.28;24.03;101552.69;5035137;28;45378;-87
2022/04/10 01:09:27;;;;;;;;;34.00;31.00;;;;;23.09;24.22;101513.34;5034554;28;46483;-86
2022/04/10 01:11:53;;;;;;;;;33.33;31.33;;;;;23.09;24.08;101519.69;5034904;28;46510;-87
2022/04/10 01:14:20;;;;;;;;;35.67;31.67;;;;;23.17;23.99;101522.22;5034735;28;45318;-87
2022/04/10 01:16:46;;;;;;;;;33.33;31.00;;;;;23.39;24.27;101559.66;5034085;28;45388;-87
2022/04/10 01:19:12;;;;;;;;;36.67;32.00;;;;;23.05;24.31;101512.53;5034537;28;48462;-87
2022/04/10 01:21:40;;;;;;;;;40.67;36.67;;;;;22.99;24.01;101487.41;5034719;28;45455;-87
2022/04/10 01:24:06;;;;;;;;;39.00;32.00;;;;;22.93;24.24;101500.13;5035151;28;45393;-88
2022/04/10 01:26:32;;;;;;;;;35.33;31.67;;;;;23.39;24.22;101581.31;5034985;28;45511;-88
2022/04/10 01:29:06;;;;;;;;;34.00;31.00;;;;;23.44;24.27;101587.56;5034204;28;47809;-87
2022/04/10 01:31:33;;;;;;;;;37.33;33.67;;;;;23.12;24.19;101525.06;5034437;28;45347;-87
2022/04/10 01:34:02;;;;;;;;;31.67;31.67;;;;;23.10;24.21;101524.13;5034791;28;45494;-87
2022/04/10 01:36:29;;;;;;;;;32.67;29.00;;;;;23.00;24.17;101521.69;5035107;28;45257;-87
2022/04/10 01:38:59;;;;;;;;;32.33;29.67;;;;;23.27;24.31;101575.25;5034352;28;47611;-87
2022/04/10 01:41:26;;;;;;;;;33.33;32.00;;;;;23.27;24.29;101574.38;5035799;28;45340;-87
2022/04/10 01:43:52;;;;;;;;;30.33;29.33;;;;;23.19;24.42;101571.84;5036712;28;45257;-87
2022/04/10 01:46:19;;;;;;;;;35.00;31.33;;;;;22.64;24.48;101475.50;5035736;28;45457;-87
2022/04/10 01:48:45;;;;;;;;;35.00;31.33;;;;;23.21;24.57;101561.84;5035165;28;48873;-87
2022/04/10 01:51:11;;;;;;;;;36.00;34.33;;;;;23.22;24.25;101574.47;5036450;28;45442;-87
2022/04/10 01:53:37;;;;;;;;;29.00;28.33;;;;;22.91;24.51;101520.03;5037812;28;45410;-88
2022/04/10 01:56:19;;;;;;;;;36.67;32.67;;;;;22.91;24.52;101529.06;5037644;28;45601;-87
2022/04/10 01:58:46;;;;;;;;;34.00;31.33;;;;;23.23;24.14;101561.81;5037546;28;47084;-87
2022/04/10 02:01:13;;;;;;;;;37.00;33.00;;;;;22.55;23.86;101444.13;5037293;28;45409;-88
2022/04/10 02:03:39;;;;;;;;;38.33;35.00;;;;;23.14;24.03;101545.78;5037761;28;45359;-92
2022/04/10 02:06:08;;;;;;;;;35.33;29.33;;;;;23.23;23.98;101532.91;5039469;28;45254;-91
2022/04/10 02:08:35;;;;;;;;;38.67;37.00;;;;;23.34;24.21;101561.59;5038258;28;47004;-91
2022/04/10 02:11:02;;;;;;;;;36.33;32.67;;;;;22.67;23.94;101452.00;5038303;28;45496;-92
2022/04/10 02:13:28;;;;;;;;;38.67;34.00;;;;;22.89;24.21;101521.88;5038763;28;45366;-92
2022/04/10 02:16:11;;;;;;;;;40.67;34.67;;;;;23.23;24.27;101559.13;5038265;28;45331;-93
2022/04/10 02:18:36;;;;;;;;;34.33;30.33;;;;;22.76;23.92;101464.44;5038646;28;48112;-92
2022/04/10 02:21:02;;;;;;;;;35.33;32.33;;;;;23.21;24.58;101563.69;5038558;28;45443;-92
2022/04/10 02:23:28;;;;;;;;;35.67;33.00;;;;;23.14;24.01;101570.16;5038785;28;45304;-92
2022/04/10 02:25:54;;;;;;;;;33.33;29.00;;;;;22.16;24.64;101404.25;5038613;28;45367;-92
2022/04/10 02:28:19;;;;;;;;;34.67;33.33;;;;;22.54;24.20;101475.66;5038401;28;48374;-92
2022/04/10 02:30:45;;;;;;;;;35.33;32.00;;;;;23.00;24.45;101582.09;5037892;28;45288;-92
2022/04/10 02:33:10;;;;;;;;;35.33;35.00;;;;;22.71;24.40;101525.84;5038240;28;45499;-92
2022/04/10 02:35:36;;;;;;;;;34.00;32.33;;;;;22.24;24.27;101426.63;5038999;28;45491;-92
2022/04/10 02:38:01;;;;;;;;;36.00;32.00;;;;;22.58;24.43;101496.31;5038226;28;47561;-92
2022/04/10 02:40:26;;;;;;;;;36.00;33.00;;;;;22.99;24.33;101557.78;5038424;28;45400;-91
2022/04/10 02:42:52;;;;;;;;;33.33;32.00;;;;;22.25;24.39;101460.88;5038335;28;45246;-92
2022/04/10 02:45:17;;;;;;;;;32.00;30.00;;;;;21.42;24.67;101319.16;5038405;28;45555;-92
2022/04/10 02:47:43;;;;;;;;;32.67;32.67;;;;;22.60;24.45;101543.19;5037964;28;47027;-90
2022/04/10 02:50:08;;;;;;;;;31.67;31.67;;;;;21.98;24.72;101445.13;5037865;28;45453;-91
2022/04/10 02:52:34;;;;;;;;;38.00;34.00;;;;;22.35;24.92;101536.41;5038385;28;45540;-92
2022/04/10 02:55:02;;;;;;;;;33.67;30.67;;;;;22.35;24.63;101518.41;5038265;28;45479;-91
2022/04/10 02:57:28;;;;;;;;;35.00;30.67;;;;;22.22;24.48;101496.06;5038175;28;47416;-91
2022/04/10 02:59:53;;;;;;;;;33.67;32.00;;;;;22.31;24.35;101515.75;5037640;28;45341;-92
2022/04/10 03:02:18;;;;;;;;;39.33;35.00;;;;;22.24;24.46;101504.16;5036880;28;45433;-92
2022/04/10 03:04:44;;;;;;;;;37.33;34.00;;;;;21.13;24.61;101311.53;5037979;28;45294;-92
2022/04/10 03:07:09;;;;;;;;;36.67;31.67;;;;;21.98;24.57;101489.25;5038288;28;46957;-92
2022/04/10 03:09:34;;;;;;;;;34.33;32.67;;;;;21.79;24.24;101433.78;5037869;28;45400;-92
2022/04/10 03:12:03;;;;;;;;;36.00;32.33;;;;;21.65;24.72;101431.31;5038151;28;45189;-92
2022/04/10 03:14:28;;;;;;;;;37.67;30.33;;;;;21.53;24.66;101419.78;5034694;28;45556;-92
2022/04/10 03:16:54;;;;;;;;;34.67;33.00;;;;;22.03;24.72;101518.91;5034552;28;48642;-92
2022/04/10 03:19:19;;;;;;;;;41.00;36.33;;;;;21.39;24.48;101413.66;5034338;28;45381;-92
2022/04/10 03:21:44;;;;;;;;;36.00;34.00;;;;;20.88;24.44;101323.56;5018162;28;45833;-92
2022/04/10 03:24:10;;;;;;;;;34.67;32.00;;;;;21.59;24.54;101460.16;5039686;28;45460;-92
2022/04/10 03:26:37;;;;;;;;;32.67;31.33;;;;;21.70;24.47;101488.81;5042922;28;46846;-91
2022/04/10 03:29:02;;;;;;;;;35.00;31.67;;;;;21.32;24.74;101430.84;5032975;28;45351;-92
2022/04/10 03:31:27;;;;;;;;;42.33;37.33;;;;;22.28;24.57;101620.28;5033965;28;45415;-92
2022/04/10 03:33:53;;;;;;;;;36.00;33.33;;;;;21.88;24.47;101517.34;5017832;28;45192;-92
2022/04/10 03:36:18;;;;;;;;;40.00;37.00;;;;;21.58;24.52;101476.41;5034177;28;46883;-91
2022/04/10 03:38:44;;;;;;;;;40.67;35.33;;;;;21.75;24.22;101504.03;5016996;28;45306;-90
2022/04/10 03:41:09;;;;;;;;;38.33;36.33;;;;;21.76;24.33;101513.91;5033309;28;45254;-90
2022/04/10 03:43:35;;;;;;;;;25.00;22.33;;;;;22.08;24.65;101600.78;5033631;28;45266;-90
2022/04/10 03:46:01;;;;;;;;;39.33;34.33;;;;;21.88;24.65;101564.19;5016442;28;47033;-90
2022/04/10 03:48:27;;;;;;;;;37.00;34.00;;;;;21.53;24.79;101499.88;5017451;28;45356;-93
2022/04/10 03:50:53;;;;;;;;;41.33;35.00;;;;;21.39;24.49;101478.44;5034097;28;45452;-92
2022/04/10 03:53:18;;;;;;;;;36.67;34.67;;;;;20.76;24.94;101423.53;5016904;28;45251;-90
2022/04/10 03:55:44;;;;;;;;;36.00;31.00;;;;;21.40;24.92;101518.91;5016643;28;46908;-90
2022/04/10 03:58:09;;;;;;;;;38.00;35.33;;;;;21.25;24.96;101484.94;5016652;28;45339;-90
2022/04/10 04:00:35;;;;;;;;;39.67;37.33;;;;;;;;5016691;28;45365;-89
2022/04/10 04:03:00;;;;;;;;;35.67;33.33;;;;;21.61;24.67;101534.88;5016261;28;45377;-89
2022/04/10 04:05:26;;;;;;;;;41.00;37.00;;;;;21.96;24.73;101601.00;5017008;28;47290;-93
2022/04/10 04:07:51;;;;;;;;;32.67;31.33;;;;;21.66;24.62;101527.56;5033787;28;46048;-92
2022/04/10 04:10:17;;;;;;;;;36.67;32.00;;;;;21.82;24.42;101539.94;5017266;28;45426;-88
2022/04/10 04:12:42;;;;;;;;;34.00;30.67;;;;;21.64;25.01;101497.91;5015928;28;45620;-90
2022/04/10 04:15:08;;;;;;;;;40.33;33.33;;;;;21.76;24.50;101515.75;5015814;28;47102;-85
2022/04/10 04:17:33;;;;;;;;;37.33;31.33;;;;;21.84;24.20;101532.72;5020804;28;45464;-85
2022/04/10 04:19:59;;;;;;;;;33.33;31.00;;;;;22.10;24.23;101571.94;5033248;28;45331;-83
2022/04/10 04:22:24;;;;;;;;;34.67;30.67;;;;;21.83;24.40;101540.84;5025697;28;45254;-83
2022/04/10 04:24:49;;;;;;;;;33.33;31.00;;;;;21.83;24.20;101525.53;5015621;28;45466;-85
2022/04/10 04:27:15;;;;;;;;;26.00;23.33;;;;;21.40;24.52;101467.59;5026755;28;45320;-85
2022/04/10 04:29:41;;;;;;;;;35.67;32.00;;;;;21.87;24.59;101547.97;5015227;28;45678;-84
2022/04/10 04:32:07;;;;;;;;;37.00;33.00;;;;;21.74;24.51;101521.16;5034414;28;45279;-84
2022/04/10 04:34:32;;;;;;;;;31.67;31.33;;;;;21.97;24.75;101576.66;5034274;28;47104;-84
2022/04/10 04:36:57;;;;;;;;;33.33;29.67;;;;;21.69;24.72;101522.16;5035489;28;45207;-84
2022/04/10 04:39:23;;;;;;;;;32.00;32.00;;;;;22.12;24.33;101596.22;5034107;28;45557;-84
2022/04/10 04:41:49;;;;;;;;;30.00;30.00;;;;;21.86;24.64;101560.59;5034764;28;45413;-85
2022/04/10 04:44:14;;;;;;;;;33.33;29.67;;;;;21.82;24.62;101557.97;5031639;28;48073;-83
2022/04/10 04:46:39;;;;;;;;;37.33;32.67;;;;;21.93;24.99;101585.72;5015511;28;45313;-83
2022/04/10 04:49:05;;;;;;;;;33.33;32.67;;;;;21.99;24.93;101606.34;5020512;28;45934;-84
2022/04/10 04:51:36;;;;;;;;;40.33;33.67;;;;;21.81;24.60;101573.25;5022026;28;45489;-84
2022/04/10 04:54:02;;;;;;;;;35.00;31.67;;;;;22.05;24.78;101620.66;5018435;28;48439;-85
2022/04/10 04:56:27;;;;;;;;;37.00;33.33;;;;;21.51;24.42;101528.69;5027020;28;45393;-84
2022/04/10 04:58:53;;;;;;;;;34.33;31.33;;;;;21.56;24.66;101538.53;5029026;28;45324;-84
2022/04/10 05:01:18;;;;;;;;;34.67;30.33;;;;;21.60;24.72;101558.25;5014432;28;45397;-84
2022/04/10 05:03:43;;;;;;;;;35.00;30.33;;;;;21.53;24.74;101553.88;5029362;28;46961;-85
2022/04/10 05:06:09;;;;;;;;;23.33;22.33;;;;;21.51;24.50;101545.75;5034484;28;45433;-86
2022/04/10 05:08:34;;;;;;;;;30.67;28.00;;;;;21.72;24.49;101565.31;5034248;28;45472;-86
2022/04/10 05:11:00;;;;;;;;;35.67;30.00;;;;;21.74;24.64;101577.88;5034400;28;45481;-86
2022/04/10 05:13:26;;;;;;;;;31.67;31.33;;;;;21.66;24.68;101560.91;5068054;28;47126;-87
2022/04/10 05:15:52;;;;;;;;;33.67;31.67;;;;;21.98;24.53;101599.13;5034326;28;45430;-86
2022/04/10 05:18:19;;;;;;;;;31.67;30.67;;;;;21.58;24.07;101554.72;5030176;28;45434;-86
2022/04/10 05:20:45;;;;;;;;;31.33;29.67;;;;;21.66;24.35;101557.28;5014665;28;45612;-87
2022/04/10 05:23:10;;;;;;;;;25.67;25.67;;;;;21.31;24.38;101499.28;5013903;28;48104;-86
2022/04/10 05:25:37;;;;;;;;;31.67;28.67;;;;;21.81;24.30;101594.00;5015780;28;45521;-85
2022/04/10 05:28:03;;;;;;;;;30.33;29.00;;;;;21.66;24.39;101571.69;5018185;28;45271;-86
2022/04/10 05:30:28;;;;;;;;;33.00;28.33;;;;;21.73;24.32;101594.13;5017812;28;45539;-87
2022/04/10 05:32:53;;;;;;;;;35.67;31.33;;;;;21.58;24.60;101579.88;5017899;28;48236;-86
2022/04/10 05:35:19;;;;;;;;;32.00;29.67;;;;;21.64;24.60;101581.59;5017729;28;45336;-88
2022/04/10 05:37:44;;;;;;;;;33.00;30.33;;;;;21.83;24.47;101606.56;5018384;28;45406;-88
2022/04/10 05:40:10;;;;;;;;;32.67;31.33;;;;;21.71;24.68;101586.00;5018161;28;45322;-87
2022/04/10 05:42:45;;;;;;;;;36.33;32.33;;;;;21.88;24.60;101637.13;5017669;28;47925;-88
2022/04/10 05:45:12;;;;;;;;;35.33;35.33;;;;;21.79;24.38;101621.03;5017996;28;45711;-88
2022/04/10 05:47:39;;;;;;;;;30.33;26.33;;;;;21.85;24.45;101633.56;5018317;28;45496;-88
2022/04/10 05:50:07;;;;;;;;;36.33;31.33;;;;;21.32;24.19;101542.44;5017778;28;45607;-88
2022/04/10 05:52:37;;;;;;;;;26.33;22.33;;;;;21.63;24.16;101582.53;5017632;28;47587;-88
2022/04/10 05:55:03;;;;;;;;;32.00;27.67;;;;;21.64;24.47;101589.72;5018299;28;45367;-88
2022/04/10 05:57:28;;;;;;;;;36.00;31.00;;;;;21.87;24.52;101639.81;5036003;28;45330;-88
2022/04/10 05:59:53;;;;;;;;;30.33;29.67;;;;;21.50;24.32;101551.19;5037976;28;45524;-87
2022/04/10 06:02:19;;;;;;;;;31.67;25.33;;;;;21.58;24.44;101574.47;5037915;28;48096;-88
2022/04/10 06:04:44;;;;;;;;;31.00;29.67;;;;;21.50;24.56;101561.97;5038473;28;45864;-88
2022/04/10 06:07:10;;;;;;;;;33.00;30.67;;;;;21.50;24.15;101587.16;5039776;28;45683;-87
2022/04/10 06:09:35;;;;;;;;;31.33;27.33;;;;;22.10;24.62;101677.34;5038952;28;45810;-87
2022/04/10 06:12:00;;;;;;;;;37.00;30.33;;;;;21.79;24.35;101604.81;5037571;28;46943;-88
2022/04/10 06:14:26;;;;;;;;;35.67;33.33;;;;;21.79;24.32;101604.81;5037297;28;45397;-88
2022/04/10 06:16:51;;;;;;;;;32.67;29.33;;;;;22.06;24.44;101619.72;5037532;28;45337;-87
2022/04/10 06:19:18;;;;;;;;;31.00;31.00;;;;;21.87;24.39;101602.91;5036861;28;45631;-88
2022/04/10 06:21:44;;;;;;;;;32.67;29.67;;;;;21.80;24.38;101567.88;5036753;28;48368;-87
2022/04/10 06:24:09;;;;;;;;;33.33;32.00;;;;;22.19;24.29;101619.53;5036475;28;45548;-87
2022/04/10 06:26:34;;;;;;;;;32.67;30.00;;;;;21.85;23.83;101571.44;5036944;28;45451;-87
2022/04/10 06:29:00;;;;;;;;;37.00;32.67;;;;;22.18;24.11;101618.66;5037133;28;45438;-88
2022/04/10 06:31:25;;;;;;;;;38.67;30.67;;;;;22.46;24.27;101669.63;5037161;28;46383;-87
2022/04/10 06:33:51;;;;;;;;;38.33;35.67;;;;;22.40;24.60;101649.00;5036912;28;45441;-88
2022/04/10 06:36:16;;;;;;;;;34.67;34.67;;;;;22.22;24.59;101612.28;5036428;28;45837;-88
2022/04/10 06:38:42;;;;;;;;;38.33;35.00;;;;;22.30;24.22;101605.88;5037132;28;45572;-88
2022/04/10 06:41:07;;;;;;;;;31.00;31.00;;;;;22.54;24.22;101648.75;5037438;28;47352;-88
2022/04/10 06:43:33;;;;;;;;;39.00;36.00;;;;;22.58;24.37;101639.66;5041262;28;45448;-87
2022/04/10 06:45:58;;;;;;;;;40.00;38.67;;;;;22.39;24.21;101592.22;5039079;28;45339;-87
2022/04/10 06:48:23;;;;;;;;;44.67;38.00;;;;;22.42;24.36;101592.19;5037117;28;45450;-88
2022/04/10 06:50:49;;;;;;;;;42.33;37.33;;;;;22.58;24.52;101617.13;5036603;28;47416;-88
2022/04/10 06:53:14;;;;;;;;;47.00;40.33;;;;;22.52;24.13;101615.44;5036519;28;45362;-85
2022/04/10 06:55:40;;;;;;;;;43.33;39.00;;;;;22.96;24.21;101681.38;5035545;28;45377;-86
2022/04/10 06:58:05;;;;;;;;;47.00;39.00;;;;;22.33;24.23;101552.66;5027051;28;45449;-84
2022/04/10 07:00:32;;;;;;;;;39.00;36.00;;;;;22.44;24.31;101587.63;5026461;28;47964;-85
2022/04/10 07:02:57;;;;;;;;;53.00;40.67;;;;;22.96;24.47;101659.72;5035731;28;45393;-85
2022/04/10 07:05:22;;;;;;;;;42.00;40.00;;;;;22.98;24.38;101651.59;5032686;28;45742;-85
2022/04/10 07:07:48;;;;;;;;;45.00;40.00;;;;;22.79;24.25;101611.34;5033377;28;45624;-85
2022/04/10 07:10:14;;;;;;;;;44.33;37.00;;;;;23.32;24.34;101686.19;5029670;28;45571;-84
2022/04/10 07:12:39;;;;;;;;;45.25;39.00;;;;;23.22;24.20;101652.06;5030601;28;45471;-85
2022/04/10 07:15:05;;;;;;;;;44.33;39.67;;;;;23.16;24.40;101631.44;5015581;28;45365;-84
2022/04/10 07:17:30;;;;;;;;;45.67;39.67;;;;;23.11;24.38;101617.09;5044897;28;45292;-84
2022/04/10 07:19:56;;;;;;;;;51.00;44.00;;;;;23.17;24.58;101629.63;5034355;28;47912;-85
2022/04/10 07:25:05;;;;;;;;;47.00;42.00;;;;;23.09;24.50;101616.19;5021293;28;45286;-85
2022/04/10 07:27:31;;;;;;;;;51.25;43.25;;;;;23.13;24.33;101615.25;5015429;28;45304;-83
2022/04/10 07:29:56;;;;;;;;;51.25;43.75;;;;;23.18;24.38;101615.16;5016073;28;48479;-89
2022/04/10 07:32:22;;;;;;;;;50.75;44.25;;;;;23.49;24.35;101666.91;5035235;28;45428;-86
2022/04/10 07:34:47;;;;;;;;;55.75;44.25;;;;;23.40;24.45;101623.75;5034888;28;45420;-85
2022/04/10 07:37:13;;;;;;;;;55.00;44.75;;;;;23.71;24.21;101655.59;5035878;28;45498;-84
2022/04/10 07:39:38;;;;;;;;;55.25;44.50;;;;;23.42;24.14;101601.13;5034835;28;47149;-80
2022/04/10 07:42:03;;;;;;;;;56.00;44.33;;;;;23.73;23.88;101659.19;5036075;28;53037;-81
2022/04/10 07:44:29;;;;;;;;;42.00;37.50;;;;;23.64;24.02;101619.63;5031143;28;45274;-81
2022/04/10 07:49:38;;;;;;;;;52.25;41.75;;;;;23.78;23.80;101643.69;5015635;28;45490;-83
2022/04/10 07:52:04;;;;;;;;;47.00;39.00;;;;;23.89;23.58;101655.22;5025434;28;45432;-85
2022/04/10 07:54:29;;;;;;;;;42.00;36.67;;;;;23.94;23.27;101650.59;5030745;28;45669;-85
2022/04/10 07:56:54;;;;;;;;;47.33;40.00;;;;;23.76;23.57;101610.34;5031136;28;45780;-84
2022/04/10 07:59:20;;;;;;;;;44.50;39.75;;;;;24.10;23.53;101661.97;5033829;28;47025;-85
2022/04/10 08:01:45;;;;;;;;;40.33;38.33;;;;;24.10;23.56;101636.69;5030213;28;45675;-85
2022/04/10 08:04:11;;;;;;;;;37.67;34.67;;;;;23.93;23.00;101601.84;5033226;28;45409;-86
2022/04/10 08:06:36;;;;;;;;;31.00;29.33;;;;;23.78;22.67;101603.97;5016047;28;45708;-84
2022/04/10 08:09:02;;;;;;;;;32.33;31.33;;;;;24.07;23.02;101643.06;5026502;28;48245;-83
2022/04/10 08:11:27;;;;;;;;;38.00;29.00;;;;;24.13;23.10;101637.53;5017079;28;45587;-82
2022/04/10 08:13:53;;;;;;;;;29.00;29.00;;;;;24.31;22.77;101660.56;5017694;28;45429;-83
2022/04/10 08:16:19;;;;;;;;;26.33;24.67;;;;;24.08;22.94;101612.34;5021516;28;45602;-84
2022/04/10 08:18:44;;;;;;;;;25.00;25.00;;;;;24.20;22.46;101615.69;5023161;28;46913;-85
2022/04/10 08:21:09;;;;;;;;;27.33;24.33;;;;;24.07;23.14;101596.13;5012350;28;45674;-85
2022/04/10 08:23:35;;;;;;;;;28.67;24.67;;;;;24.66;22.51;101668.81;5017663;28;45527;-83
2022/04/10 08:26:00;;;;;;;;;24.33;21.33;;;;;24.23;22.63;101592.09;5023349;28;45578;-86
2022/04/10 08:28:25;;;;;;;;;19.67;18.67;;;;;24.25;22.31;101614.63;5023114;28;48162;-85
2022/04/10 08:30:51;;;;;;;;;11.33;11.33;;;;;24.37;21.94;101623.41;5018796;28;45421;-83
2022/04/10 08:33:16;;;;;;;;;4.00;4.00;;;;;24.48;21.30;101648.44;5021291;28;45421;-81
2022/04/10 08:35:42;;;;;;;;;7.33;3.00;;;;;24.23;20.64;101621.03;5018673;28;45895;-84
2022/04/10 08:38:07;;;;;;;;;2.00;2.00;;;;;23.94;21.20;101609.06;5017730;28;47306;-85
2022/04/10 08:40:33;;;;;;;;;4.00;2.00;;;;;23.74;21.18;101583.28;5016296;28;45894;-84
2022/04/10 08:43:02;;;;;;;;;2.00;2.00;;;;;23.87;20.79;101624.56;5020077;28;45820;-84
2022/04/10 08:45:28;;;;;;;;;5.67;3.67;;;;;23.95;20.94;101635.22;5024728;28;45497;-83
2022/04/10 08:47:55;;;;;;;;;4.00;3.00;;;;;24.00;20.87;101644.16;5033889;28;48315;-84
2022/04/10 08:50:23;;;;;;;;;4.67;2.00;;;;;23.59;21.33;101587.22;5017493;28;46569;-82
2022/04/10 08:52:52;;;;;;;;;3.00;3.00;;;;;23.95;21.01;101587.34;5018132;28;45483;-84
2022/04/10 08:55:19;;;;;;;;;2.67;2.67;;;;;23.92;20.36;101579.28;5021475;28;45460;-84
2022/04/10 08:57:44;;;;;;;;;3.00;2.00;;;;;23.88;20.91;101555.00;5019023;28;48046;-83
2022/04/10 09:00:10;;;;;;;;;2.00;2.00;;;;;23.85;20.04;101552.31;5023173;28;46030;-84
2022/04/10 09:02:46;;;;;;;;;4.33;2.33;;;;;24.44;20.52;101685.63;5020004;28;45493;-84
2022/04/10 09:05:30;;;;;;;;;3.00;1.67;;;;;23.76;20.63;101567.88;5013053;28;45602;-83
2022/04/10 09:08:12;;;;;;;;;3.00;2.00;;;;;24.07;20.68;101636.78;5020183;28;47076;-85
2022/04/10 09:11:04;;;;;;;;;2.67;2.00;;;;;24.38;20.69;101679.44;5020675;28;45889;-84
2022/04/10 09:13:34;;;;;;;;;4.00;3.00;;;;;24.00;20.24;101557.41;5031603;28;45482;-84
2022/04/10 09:16:06;;;;;;;;;6.00;3.67;;;;;24.05;20.13;101584.41;5047309;28;45515;-84
2022/04/10 09:18:48;;;;;;;;;3.67;3.33;;;;;24.03;20.24;101629.63;5021424;28;45539;-84
2022/04/10 09:21:15;;;;;;;;;4.00;2.67;;;;;24.02;20.84;101635.97;5019536;28;45885;-83
2022/04/10 09:23:40;;;;;;;;;3.00;2.67;;;;;24.30;20.80;101596.44;5012905;28;45498;-85
2022/04/10 09:26:07;;;;;;;;;3.67;3.67;;;;;24.16;19.73;101576.88;5018874;28;45486;-82
2022/04/10 09:28:42;;;;;;;;;3.00;3.00;;;;;24.79;20.13;101674.81;5024791;28;45568;-81
2022/04/10 09:31:31;;;;;;;;;4.67;2.33;;;;;24.89;20.36;101646.50;5014438;28;45463;-82
2022/04/10 09:34:05;;;;;;;;;2.67;2.67;;;;;25.15;20.14;101658.50;5020685;28;45818;-83
2022/04/10 09:36:39;;;;;;;;;1.00;1.00;;;;;25.37;19.70;101666.06;5026461;28;45530;-81
2022/04/10 09:39:16;;;;;;;;;7.00;4.00;;;;;25.31;20.15;101643.53;5009345;28;48014;-81
2022/04/10 09:41:44;;;;;;;;;3.67;3.00;;;;;25.54;20.58;101674.63;5010732;28;45459;-83
2022/04/10 09:44:11;;;;;;;;;4.00;2.00;;;;;25.61;19.60;101669.88;5010183;28;45481;-83
2022/04/10 09:46:37;;;;;;;;;2.00;2.00;;;;;25.16;19.48;101581.50;5018088;28;45996;-82
2022/04/10 09:49:05;;;;;;;;;3.00;3.00;;;;;25.72;19.92;101672.31;5013588;28;46253;-82
2022/04/10 09:51:30;;;;;;;;;3.00;2.00;;;;;25.49;18.84;101663.00;5022587;28;46127;-82
2022/04/10 09:54:05;;;;;;;;;4.00;3.00;;;;;25.16;19.38;101630.38;5021517;28;45548;-82
2022/04/10 09:56:31;;;;;;;;;5.33;2.00;;;;;24.74;19.43;101614.34;5024107;28;45598;-80
2022/04/10 09:59:00;;;;;;;;;4.00;2.00;;;;;25.12;19.73;101642.28;5024746;28;46434;-81
2022/04/10 10:01:29;;;;;;;;;4.00;3.00;;;;;25.49;19.90;101654.84;5039680;28;45504;-81
2022/04/10 10:03:56;;;;;;;;;4.00;4.00;;;;;25.62;19.58;101631.78;5016129;28;45556;-81
2022/04/10 10:06:21;;;;;;;;;4.00;3.33;;;;;25.78;19.30;101643.13;5019502;28;45861;-82
2022/04/10 10:08:49;;;;;;;;;3.33;3.33;;;;;25.86;19.14;101661.88;5012040;28;47688;-80
2022/04/10 10:11:15;;;;;;;;;4.00;2.33;;;;;24.90;18.96;101542.44;5030393;28;45439;-82
2022/04/10 10:13:40;;;;;;;;;4.00;2.00;;;;;25.53;19.00;101640.25;5037159;28;45276;-82
2022/04/10 10:16:07;;;;;;;;;3.00;3.00;;;;;25.25;18.30;101611.13;5037596;28;45521;-78
2022/04/10 10:18:33;;;;;;;;;5.33;3.00;;;;;25.14;18.33;101589.69;5037366;28;46361;-83
2022/04/10 10:20:58;;;;;;;;;3.00;3.00;;;;;24.61;18.14;101633.69;5032359;28;45467;-84
2022/04/10 10:23:25;;;;;;;;;3.00;3.00;;;;;24.58;18.57;101590.28;5037851;28;45275;-83
2022/04/10 10:26:12;;;;;;;;;2.00;2.00;;;;;25.44;19.01;101645.94;5036317;28;45418;-83
2022/04/10 10:29:11;;;;;;;;;3.33;3.33;;;;;25.57;18.50;101592.13;5037445;28;46535;-85
2022/04/10 10:32:02;;;;;;;;;3.33;2.00;;;;;25.96;18.44;101636.22;5036342;28;45187;-84
2022/04/10 10:34:30;;;;;;;;;7.67;5.67;;;;;25.30;18.33;101571.16;5037407;28;45409;-84
2022/04/10 10:36:57;;;;;;;;;4.00;4.00;;;;;25.80;18.89;101624.91;5037383;28;45162;-84
2022/04/10 10:39:23;;;;;;;;;5.00;4.00;;;;;25.14;18.42;101546.25;5035606;28;47615;-83
2022/04/10 10:41:52;;;;;;;;;3.67;3.67;;;;;25.79;19.07;101625.84;5035869;28;45889;-86
2022/04/10 10:44:46;;;;;;;;;4.67;4.00;;;;;25.14;18.26;101627.72;5036176;28;45342;-86
2022/04/10 10:47:23;;;;;;;;;3.33;3.33;;;;;25.43;19.34;101626.03;5036078;28;45366;-84
2022/04/10 10:49:51;;;;;;;;;3.00;3.00;;;;;25.68;19.10;101601.75;5035707;28;47329;-83
2022/04/10 10:52:18;;;;;;;;;4.00;3.00;;;;;25.75;18.96;101574.34;5035679;28;45290;-83
2022/04/10 10:54:53;;;;;;;;;4.00;4.00;;;;;25.76;18.30;101628.66;5036184;28;45552;-83
2022/04/10 10:57:37;;;;;;;;;5.33;4.00;;;;;25.95;19.02;101626.28;5035254;28;45250;-83
2022/04/10 11:00:21;;;;;;;;;5.00;5.00;;;;;25.99;18.24;101591.69;5036805;28;46430;-83
2022/04/10 11:02:52;;;;;;;;;4.00;4.00;;;;;26.23;18.58;101586.44;5035630;28;45287;-83
2022/04/10 11:05:35;;;;;;;;;4.33;4.00;;;;;26.08;18.91;101549.78;5035532;28;45471;-84
2022/04/10 11:08:07;;;;;;;;;4.67;4.67;;;;;26.00;18.43;101597.09;5036126;28;45413;-85
2022/04/10 11:10:50;;;;;;;;;8.33;5.67;;;;;26.10;18.73;101585.97;5037100;28;45352;-85
2022/04/10 11:13:16;;;;;;;;;6.00;4.67;;;;;26.38;18.02;101602.25;5035591;28;45379;-85
2022/04/10 11:15:51;;;;;;;;;4.67;4.67;;;;;26.55;18.51;101604.38;5037114;28;45242;-85
2022/04/10 11:18:36;;;;;;;;;5.00;5.00;;;;;26.49;18.58;101561.06;5035634;28;45292;-84
2022/04/10 11:21:18;;;;;;;;;8.00;8.00;;;;;26.42;17.73;101564.97;5036927;28;46542;-84